Track Пята Владислав

Time Latitude Longitude Accuracy (66% radius in meters) Altitude (meters) Speed (km/hour) Bearing (degrees) Battery (%) GPS flag
09:54:01 53.026425 36.148693 9.1019992828369 240 1.1699999570847 201.19999694824 70 1 delete
09:54:00 53.026442 36.148682 10.618999481201 240 1.1699999570847 186.60000610352 70 1 delete
09:53:55 53.026525 36.148690 12.135999679565 238 1.1699999570847 189.5 70 1 delete
09:53:53 53.026546 36.148693 9.1019992828369 238 1.1699999570847 209.80000305176 70 1 delete
09:53:45 53.026599 36.148672 6.0679998397827 237 1.2000000476837 172.30000305176 70 1 delete
09:53:39 53.026637 36.148740 9.1019992828369 240 1.2200000286102 196.30000305176 70 1 delete
09:53:35 53.026714 36.148746 7.585000038147 238 1.210000038147 192.19999694824 70 1 delete
09:53:24 53.026851 36.148762 4.5509996414185 236 1.1900000572205 272 70 1 delete
09:53:15 53.026824 36.148922 4.5509996414185 239 1.0800000429153 287.39999389648 70 1 delete
09:53:14 53.026814 36.148937 4.5509996414185 239 1.0700000524521 297.20001220703 70 1 delete
09:53:04 53.026792 36.149065 4.5509996414185 237 1.0499999523163 193.69999694824 70 1 delete
09:52:56 53.026800 36.149220 19.720998764038 240 0.62000000476837 227.69999694824 70 1 delete
09:52:55 53.026869 36.149064 19.720998764038 243 1.789999961853 249.19999694824 70 1 delete
09:43:55 53.024442 36.149713 4.5509996414185 246 1.0099999904633 334.60000610352 71 1 delete
09:43:47 53.024384 36.149714 4.5509996414185 245 0.76999998092651 297.20001220703 71 1 delete
09:43:44 53.024373 36.149735 4.5509996414185 245 0.37999999523163 244.5 71 1 delete
09:43:37 53.024364 36.149797 4.5509996414185 244 1.0700000524521 267.29998779297 71 1 delete
09:43:31 53.024417 36.149872 4.5509996414185 246 0.15000000596046 236.69999694824 71 1 delete
09:43:26 53.024458 36.149962 4.5509996414185 246 1.1000000238419 319 71 1 delete
09:43:15 53.024444 36.150047 4.5509996414185 252 1.1799999475479 354.79998779297 71 1 delete
09:43:13 53.024427 36.150028 4.5509996414185 252 1.1900000572205 39.299999237061 71 1 delete
09:43:05 53.024368 36.150004 4.5509996414185 251 1.25 357 71 1 delete
09:43:02 53.024335 36.149977 6.0679998397827 248 1.25 19.10000038147 71 1 delete
09:42:55 53.024287 36.149984 4.5509996414185 249 1.3500000238419 356.10000610352 71 1 delete
09:42:50 53.024241 36.149957 7.585000038147 251 1.460000038147 19.799999237061 71 1 delete
09:42:44 53.024193 36.149950 6.0679998397827 247 1.6200000047684 41.200000762939 71 1 delete
09:42:37 53.024042 36.149915 7.585000038147 244 1.8300000429153 356.10000610352 71 1 delete
09:42:34 53.023967 36.149899 6.0679998397827 246 2.3900001049042 9.5 71 1 delete
09:42:33 53.023947 36.149904 6.0679998397827 248 1.3300000429153 305.10000610352 71 1 delete
09:42:23 53.023879 36.149974 4.5509996414185 248 0 0 71 1 delete
09:42:13 53.023813 36.149946 4.5509996414185 249 0 0 71 1 delete
09:42:02 53.023813 36.149788 19.720998764038 256 0.36000001430511 5 71 1 delete
09:41:59 53.023855 36.149885 7.585000038147 261 0 0 71 1 delete
09:41:55 53.023723 36.149959 16.687000274658 239 0.98000001907349 222.30000305176 71 1 delete
08:10:28 53.027290 36.149599 4.5509996414185 241 0 0 78 1 delete
08:10:18 53.027293 36.149587 4.5509996414185 243 0 0 78 1 delete
08:10:07 53.027292 36.149588 6.0679998397827 243 0 0 78 1 delete
08:09:57 53.027268 36.149609 6.0679998397827 248 0 0 78 1 delete
08:09:46 53.027267 36.149610 6.0679998397827 248 0 0 78 1 delete
08:09:36 53.027258 36.149617 6.0679998397827 251 0 0 78 1 delete
08:09:29 53.027248 36.149620 7.585000038147 252 0 0 78 1 delete
08:09:26 53.027218 36.149638 9.1019992828369 252 0.23999999463558 185.69999694824 78 1 delete
08:09:20 53.027163 36.149678 13.65299987793 276 0 0 78 1 delete
10:18:29 53.018131 36.150262 7.585000038147 227 1.7599999904633 201.80000305176 77 1 delete
10:18:27 53.018153 36.150253 6.0679998397827 225 1.8700000047684 126.90000152588 77 1 delete
10:18:24 53.018174 36.150164 7.585000038147 226 2.7200000286102 116.30000305176 77 1 delete
10:18:21 53.018208 36.149978 7.585000038147 228 2.6600000858307 144.19999694824 77 1 delete
10:18:18 53.018271 36.149859 4.5509996414185 229 5.9800000190735 141.19999694824 77 1 delete
10:18:17 53.018315 36.149788 6.0679998397827 229 5.710000038147 128.80000305176 77 1 delete
10:18:15 53.018377 36.149682 6.0679998397827 230 2.9400000572205 132.39999389648 77 1 delete